Time,TemperatureF,DewpointF,PressureIn,WindDirection,WindDirectionDegrees,WindSpeedMPH,WindSpeedGustMPH,Humidity,HourlyPrecipIn,Conditions,Clouds,dailyrainin,SoftwareType,DateUTC
2013-01-11 00:01:00,31.5,23.8,30.43,NW,315,0.5,1.6,73,0.00,CLR,,0.00,WeatherDisplay:10.37,2013-01-11 05:01:00,
2013-01-11 00:03:00,31.5,23.8,30.44,NW,315,0.7,1.1,73,0.00,CLR,,0.00,WeatherDisplay:10.37,2013-01-11 05:03:00,
2013-01-11 00:04:00,31.5,23.8,30.44,WSW,248,0.5,1.1,73,0.00,CLR,,0.00,WeatherDisplay:10.37,2013-01-11 05:04:00,
2013-01-11 00:09:00,31.3,23.6,30.43,WNW,292,0.5,1.1,73,0.00,CLR,,0.00,WeatherDisplay:10.37,2013-01-11 05:09:00,
2013-01-11 00:14:00,31.3,23.6,30.43,West,270,0.7,2.6,73,0.00,CLR,,0.00,WeatherDisplay:10.37,2013-01-11 05:14:00,
2013-01-11 00:19:00,31.1,23.5,30.43,WNW,292,1.1,1.1,73,0.00,CLR,,0.00,WeatherDisplay:10.37,2013-01-11 05:19:00,
2013-01-11 00:24:00,31.1,23.5,30.43,NW,315,0.5,3.5,73,0.00,CLR,,0.00,WeatherDisplay:10.37,2013-01-11 05:24:00,
2013-01-11 00:29:00,31.1,23.5,30.44,NNW,338,0.0,0.0,73,0.00,CLR,,0.00,WeatherDisplay:10.37,2013-01-11 05:29:00,
2013-01-11 00:34:00,30.9,23.3,30.43,WNW,292,1.1,1.1,73,0.00,CLR,,0.00,WeatherDisplay:10.37,2013-01-11 05:34:00,
2013-01-11 00:39:00,30.7,23.1,30.43,NW,315,0.0,0.0,73,0.00,CLR,,0.00,WeatherDisplay:10.37,2013-01-11 05:39:00,
2013-01-11 00:44:00,30.6,22.9,30.44,WNW,292,0.0,1.1,73,0.00,CLR,,0.00,WeatherDisplay:10.37,2013-01-11 05:44:00,
2013-01-11 00:49:00,30.4,22.8,30.44,NW,315,0.0,0.0,73,0.00,CLR,,0.00,WeatherDisplay:10.37,2013-01-11 05:49:00,
2013-01-11 00:54:00,30.2,22.9,30.43,WNW,292,1.1,1.1,74,0.00,CLR,,0.00,WeatherDisplay:10.37,2013-01-11 05:54:00,
2013-01-11 00:59:00,30.2,22.9,30.43,NW,315,0.0,1.1,74,0.00,CLR,,0.00,WeatherDisplay:10.37,2013-01-11 05:59:00,
2013-01-11 01:04:00,30.0,22.7,30.44,SW,225,0.0,0.0,74,0.00,CLR,,0.00,WeatherDisplay:10.37,2013-01-11 06:04:00,
2013-01-11 01:09:00,29.8,22.6,30.43,NW,315,0.7,1.1,74,0.00,CLR,,0.00,WeatherDisplay:10.37,2013-01-11 06:09:00,
2013-01-11 01:14:00,29.8,22.6,30.43,NW,315,0.9,1.1,74,0.00,CLR,,0.00,WeatherDisplay:10.37,2013-01-11 06:14:00,
2013-01-11 01:19:00,29.8,22.6,30.44,NNW,338,0.7,1.1,74,0.00,CLR,,0.00,WeatherDisplay:10.37,2013-01-11 06:19:00,
2013-01-11 01:24:00,29.7,22.4,30.44,NNW,338,0.2,0.2,74,0.00,CLR,,0.00,WeatherDisplay:10.37,2013-01-11 06:24:00,
2013-01-11 01:29:00,29.5,22.5,30.43,WNW,292,1.4,1.4,75,0.00,CLR,,0.00,WeatherDisplay:10.37,2013-01-11 06:29:00,
2013-01-11 01:34:00,29.3,22.4,30.43,NNW,338,0.0,0.0,75,0.00,CLR,,0.00,WeatherDisplay:10.37,2013-01-11 06:34:00,
2013-01-11 01:39:00,29.1,22.2,30.44,NNW,338,0.0,0.0,75,0.00,CLR,,0.00,WeatherDisplay:10.37,2013-01-11 06:39:00,
2013-01-11 01:44:00,29.1,22.2,30.44,NW,315,0.0,1.1,75,0.00,CLR,,0.00,WeatherDisplay:10.37,2013-01-11 06:44:00,
2013-01-11 01:49:00,28.9,22.0,30.43,NW,315,0.0,0.0,75,0.00,CLR,,0.00,WeatherDisplay:10.37,2013-01-11 06:49:00,
2013-01-11 01:54:00,28.8,21.8,30.43,NW,315,0.0,0.0,75,0.00,CLR,,0.00,WeatherDisplay:10.37,2013-01-11 06:54:00,
2013-01-11 01:59:00,28.6,21.7,30.43,NW,315,0.0,0.0,75,0.00,CLR,,0.00,WeatherDisplay:10.37,2013-01-11 06:59:00,
2013-01-11 02:04:00,28.4,21.5,30.43,NW,315,0.0,0.0,75,0.00,CLR,,0.00,WeatherDisplay:10.37,2013-01-11 07:04:00,
2013-01-11 02:09:00,28.4,21.8,30.43,NW,315,0.0,0.0,76,0.00,CLR,,0.00,WeatherDisplay:10.37,2013-01-11 07:09:00,
2013-01-11 02:14:00,28.2,21.6,30.43,NW,315,0.5,1.1,76,0.00,CLR,,0.00,WeatherDisplay:10.37,2013-01-11 07:14:00,
2013-01-11 02:19:00,28.0,21.1,30.43,NW,315,0.0,0.0,75,0.00,CLR,,0.00,WeatherDisplay:10.37,2013-01-11 07:19:00,
2013-01-11 02:24:00,27.9,21.0,30.43,WNW,292,0.0,1.1,75,0.00,CLR,,0.00,WeatherDisplay:10.37,2013-01-11 07:24:00,
2013-01-11 02:29:00,27.9,21.0,30.42,WNW,292,0.0,0.0,75,0.00,CLR,,0.00,WeatherDisplay:10.37,2013-01-11 07:29:00,
2013-01-11 02:34:00,27.9,21.0,30.43,WNW,292,0.0,0.0,75,0.00,CLR,,0.00,WeatherDisplay:10.37,2013-01-11 07:34:00,
2013-01-11 02:39:00,27.9,21.3,30.43,WSW,248,0.5,1.1,76,0.00,CLR,,0.00,WeatherDisplay:10.37,2013-01-11 07:39:00,
2013-01-11 02:44:00,27.7,21.1,30.42,WSW,248,0.0,0.0,76,0.00,CLR,,0.00,WeatherDisplay:10.37,2013-01-11 07:44:00,
2013-01-11 02:49:00,27.7,21.1,30.42,WNW,292,0.0,0.0,76,0.00,CLR,,0.00,WeatherDisplay:10.37,2013-01-11 07:49:00,
2013-01-11 02:54:00,27.7,21.4,30.42,West,270,0.0,0.0,77,0.00,CLR,,0.00,WeatherDisplay:10.37,2013-01-11 07:54:00,
2013-01-11 02:59:00,27.5,21.2,30.42,WSW,248,0.7,1.1,77,0.00,CLR,,0.00,WeatherDisplay:10.37,2013-01-11 07:59:00,
2013-01-11 03:04:00,27.5,21.2,30.42,SW,225,0.2,1.1,77,0.00,CLR,,0.00,WeatherDisplay:10.37,2013-01-11 08:04:00,
2013-01-11 03:09:00,27.3,21.1,30.42,SW,225,0.0,0.0,77,0.00,CLR,,0.00,WeatherDisplay:10.37,2013-01-11 08:09:00,
2013-01-11 03:14:00,27.3,21.1,30.42,WSW,248,0.0,0.0,77,0.00,CLR,,0.00,WeatherDisplay:10.37,2013-01-11 08:14:00,
2013-01-11 03:19:00,27.1,20.9,30.42,West,270,0.0,0.0,77,0.00,CLR,,0.00,WeatherDisplay:10.37,2013-01-11 08:19:00,
2013-01-11 03:24:00,27.0,20.7,30.42,WNW,292,0.5,1.1,77,0.00,CLR,,0.00,WeatherDisplay:10.37,2013-01-11 08:24:00,
2013-01-11 03:29:00,27.0,21.0,30.42,WNW,292,0.0,0.0,78,0.00,CLR,,0.00,WeatherDisplay:10.37,2013-01-11 08:29:00,
2013-01-11 03:34:00,27.0,21.0,30.42,NNW,338,0.9,1.1,78,0.00,CLR,,0.00,WeatherDisplay:10.37,2013-01-11 08:34:00,
2013-01-11 03:39:00,27.0,21.0,30.42,NW,315,0.5,1.1,78,0.00,CLR,,0.00,WeatherDisplay:10.37,2013-01-11 08:39:00,
2013-01-11 03:44:00,27.0,21.0,30.41,NW,315,0.5,1.1,78,0.00,CLR,,0.00,WeatherDisplay:10.37,2013-01-11 08:44:00,
2013-01-11 03:49:00,27.0,21.3,30.41,NW,315,0.9,1.1,79,0.00,CLR,,0.00,WeatherDisplay:10.37,2013-01-11 08:49:00,
2013-01-11 03:54:00,27.1,21.5,30.41,NW,315,0.2,1.1,79,0.00,CLR,,0.00,WeatherDisplay:10.37,2013-01-11 08:54:00,
2013-01-11 03:59:00,27.1,21.5,30.40,NW,315,0.0,0.0,79,0.00,CLR,,0.00,WeatherDisplay:10.37,2013-01-11 08:59:00,
2013-01-11 04:04:00,27.1,21.5,30.40,WSW,248,0.5,1.1,79,0.00,CLR,,0.00,WeatherDisplay:10.37,2013-01-11 09:04:00,
2013-01-11 04:09:00,27.1,21.5,30.40,SW,225,0.5,0.5,79,0.00,CLR,,0.00,WeatherDisplay:10.37,2013-01-11 09:09:00,
2013-01-11 04:14:00,27.1,21.5,30.40,SW,225,0.0,0.0,79,0.00,CLR,,0.00,WeatherDisplay:10.37,2013-01-11 09:14:00,
2013-01-11 04:19:00,27.3,21.7,30.40,SW,225,0.0,0.0,79,0.00,CLR,,0.00,WeatherDisplay:10.37,2013-01-11 09:19:00,
2013-01-11 04:24:00,27.1,21.5,30.40,SW,225,0.0,0.0,79,0.00,CLR,,0.00,WeatherDisplay:10.37,2013-01-11 09:24:00,
2013-01-11 04:29:00,27.1,21.5,30.40,West,270,0.0,0.0,79,0.00,CLR,,0.00,WeatherDisplay:10.37,2013-01-11 09:29:00,
2013-01-11 04:34:00,27.1,21.5,30.40,NNE,22,0.0,1.1,79,0.00,CLR,,0.00,WeatherDisplay:10.37,2013-01-11 09:34:00,
2013-01-11 04:39:00,27.1,21.5,30.40,NNE,22,0.0,0.0,79,0.00,CLR,,0.00,WeatherDisplay:10.37,2013-01-11 09:39:00,
2013-01-11 04:44:00,27.1,21.5,30.39,NNE,22,0.0,0.0,79,0.00,CLR,,0.00,WeatherDisplay:10.37,2013-01-11 09:44:00,
2013-01-11 04:49:00,27.1,21.5,30.40,NNE,22,0.0,0.0,79,0.00,CLR,,0.00,WeatherDisplay:10.37,2013-01-11 09:49:00,
2013-01-11 04:54:00,27.1,21.5,30.40,SW,225,0.0,0.0,79,0.00,CLR,,0.00,WeatherDisplay:10.37,2013-01-11 09:54:00,
2013-01-11 04:59:00,27.0,21.3,30.40,WSW,248,0.5,0.5,79,0.00,CLR,,0.00,WeatherDisplay:10.37,2013-01-11 09:59:00,
2013-01-11 05:04:00,27.0,21.3,30.39,NW,315,0.0,0.0,79,0.00,CLR,,0.00,WeatherDisplay:10.37,2013-01-11 10:04:00,
2013-01-11 05:09:00,27.0,21.3,30.40,NW,315,0.0,0.0,79,0.00,CLR,,0.00,WeatherDisplay:10.37,2013-01-11 10:09:00,
2013-01-11 05:14:00,26.8,21.1,30.39,WNW,292,0.0,0.0,79,0.00,CLR,,0.00,WeatherDisplay:10.37,2013-01-11 10:14:00,
2013-01-11 05:19:00,26.8,21.1,30.39,WNW,292,0.0,0.0,79,0.00,CLR,,0.00,WeatherDisplay:10.37,2013-01-11 10:19:00,
2013-01-11 05:24:00,26.8,21.1,30.39,WNW,292,0.0,0.0,79,0.00,CLR,,0.00,WeatherDisplay:10.37,2013-01-11 10:24:00,
2013-01-11 05:29:00,26.6,21.3,30.39,WNW,292,0.0,0.0,80,0.00,CLR,,0.00,WeatherDisplay:10.37,2013-01-11 10:29:00,
2013-01-11 05:34:00,26.6,21.3,30.40,WNW,292,0.0,0.0,80,0.00,CLR,,0.00,WeatherDisplay:10.37,2013-01-11 10:34:00,
2013-01-11 05:39:00,26.6,21.3,30.40,NW,315,0.0,0.0,80,0.00,CLR,,0.00,WeatherDisplay:10.37,2013-01-11 10:39:00,
2013-01-11 05:44:00,26.8,21.4,30.40,NW,315,0.0,0.0,80,0.00,CLR,,0.00,WeatherDisplay:10.37,2013-01-11 10:44:00,
2013-01-11 05:49:00,26.8,21.4,30.40,West,270,0.0,0.0,80,0.00,CLR,,0.00,WeatherDisplay:10.37,2013-01-11 10:49:00,
2013-01-11 05:54:00,26.8,21.4,30.40,West,270,0.0,0.0,80,0.00,CLR,,0.00,WeatherDisplay:10.37,2013-01-11 10:54:00,
2013-01-11 05:59:00,26.6,21.6,30.40,WNW,292,0.0,0.0,81,0.00,CLR,,0.00,WeatherDisplay:10.37,2013-01-11 10:59:00,
2013-01-11 06:04:00,26.6,21.6,30.40,WNW,292,0.0,0.0,81,0.00,CLR,,0.00,WeatherDisplay:10.37,2013-01-11 11:04:00,
2013-01-11 06:09:00,26.6,21.6,30.41,WNW,292,0.0,0.0,81,0.00,CLR,,0.00,WeatherDisplay:10.37,2013-01-11 11:09:00,
2013-01-11 06:14:00,26.6,21.6,30.41,WNW,292,0.0,0.0,81,0.00,CLR,,0.00,WeatherDisplay:10.37,2013-01-11 11:14:00,
2013-01-11 06:19:00,26.6,21.6,30.41,WNW,292,0.0,0.0,81,0.00,CLR,,0.00,WeatherDisplay:10.37,2013-01-11 11:19:00,
2013-01-11 06:24:00,26.4,21.4,30.40,NNE,22,0.0,0.0,81,0.00,CLR,,0.00,WeatherDisplay:10.37,2013-01-11 11:24:00,
2013-01-11 06:29:00,26.6,21.6,30.41,NNE,22,0.0,0.0,81,0.00,CLR,,0.00,WeatherDisplay:10.37,2013-01-11 11:29:00,
2013-01-11 06:34:00,26.4,21.4,30.41,NNE,22,0.0,0.0,81,0.00,CLR,,0.00,WeatherDisplay:10.37,2013-01-11 11:34:00,
2013-01-11 06:39:00,26.4,21.7,30.42,NNW,338,0.0,0.0,82,0.00,CLR,,0.00,WeatherDisplay:10.37,2013-01-11 11:39:00,
2013-01-11 06:44:00,26.6,21.8,30.42,NNW,338,0.0,0.0,82,0.00,CLR,,0.00,WeatherDisplay:10.37,2013-01-11 11:44:00,
2013-01-11 06:49:00,26.6,21.6,30.42,NNW,338,0.0,0.0,81,0.00,CLR,,0.00,WeatherDisplay:10.37,2013-01-11 11:49:00,
2013-01-11 06:54:00,26.6,21.6,30.42,West,270,0.0,0.0,81,0.00,CLR,,0.00,WeatherDisplay:10.37,2013-01-11 11:54:00,
2013-01-11 06:59:00,26.6,21.8,30.42,West,270,0.0,0.0,82,0.00,CLR,,0.00,WeatherDisplay:10.37,2013-01-11 11:59:00,
2013-01-11 07:04:00,26.6,21.8,30.43,West,270,0.0,0.0,82,0.00,CLR,,0.00,WeatherDisplay:10.37,2013-01-11 12:04:00,
2013-01-11 07:09:00,26.8,22.0,30.42,NW,315,0.5,1.1,82,0.00,CLR,,0.00,WeatherDisplay:10.37,2013-01-11 12:09:00,
2013-01-11 07:14:00,26.8,22.0,30.42,NW,315,0.0,0.0,82,0.00,CLR,,0.00,WeatherDisplay:10.37,2013-01-11 12:14:00,
2013-01-11 07:19:00,26.8,22.0,30.42,NW,315,0.0,0.0,82,0.00,CLR,,0.00,WeatherDisplay:10.37,2013-01-11 12:19:00,
2013-01-11 07:24:00,27.0,22.2,30.42,North,0,0.2,1.1,82,0.00,CLR,,0.00,WeatherDisplay:10.37,2013-01-11 12:24:00,
2013-01-11 07:29:00,27.0,22.2,30.42,NNW,338,0.5,0.5,82,0.00,CLR,,0.00,WeatherDisplay:10.37,2013-01-11 12:29:00,
2013-01-11 07:34:00,27.3,22.5,30.42,NNW,338,0.5,0.5,82,0.00,CLR,,0.00,WeatherDisplay:10.37,2013-01-11 12:34:00,
2013-01-11 07:39:00,27.5,22.7,30.43,NW,315,0.5,1.1,82,0.00,CLR,,0.00,WeatherDisplay:10.37,2013-01-11 12:39:00,
2013-01-11 07:44:00,27.7,23.2,30.43,North,0,0.7,1.1,83,0.00,CLR,,0.00,WeatherDisplay:10.37,2013-01-11 12:44:00,
2013-01-11 07:49:00,27.9,23.4,30.43,North,0,0.9,0.9,83,0.00,CLR,,0.00,WeatherDisplay:10.37,2013-01-11 12:49:00,
2013-01-11 07:54:00,28.2,23.7,30.42,NNW,338,0.5,1.1,83,0.00,CLR,,0.00,WeatherDisplay:10.37,2013-01-11 12:54:00,
2013-01-11 07:59:00,28.6,24.1,30.43,NW,315,0.2,0.2,83,0.00,CLR,,0.00,WeatherDisplay:10.37,2013-01-11 12:59:00,
2013-01-11 08:04:00,28.9,24.4,30.43,NNW,338,0.0,0.0,83,0.00,CLR,,0.00,WeatherDisplay:10.37,2013-01-11 13:04:00,
2013-01-11 08:09:00,29.3,24.8,30.42,NNW,338,0.0,0.0,83,0.00,CLR,,0.00,WeatherDisplay:10.37,2013-01-11 13:09:00,
2013-01-11 08:14:00,29.7,25.1,30.43,NNW,338,0.0,0.0,83,0.00,CLR,,0.00,WeatherDisplay:10.37,2013-01-11 13:14:00,
2013-01-11 08:19:00,30.0,25.5,30.43,NNW,338,0.0,0.0,83,0.00,CLR,,0.00,WeatherDisplay:10.37,2013-01-11 13:19:00,
2013-01-11 08:24:00,30.4,25.8,30.43,NNW,338,0.0,0.0,83,0.00,CLR,,0.00,WeatherDisplay:10.37,2013-01-11 13:24:00,
2013-01-11 08:29:00,30.6,26.0,30.43,NNW,338,0.0,0.0,83,0.00,CLR,,0.00,WeatherDisplay:10.37,2013-01-11 13:29:00,
2013-01-11 08:34:00,30.9,26.4,30.43,NNW,338,0.0,0.0,83,0.00,CLR,,0.00,WeatherDisplay:10.37,2013-01-11 13:34:00,
2013-01-11 08:39:00,31.3,26.7,30.43,NNW,338,0.0,0.0,83,0.00,CLR,,0.00,WeatherDisplay:10.37,2013-01-11 13:39:00,
2013-01-11 08:44:00,31.6,27.1,30.43,NNW,338,0.0,0.0,83,0.00,CLR,,0.00,WeatherDisplay:10.37,2013-01-11 13:44:00,
2013-01-11 08:49:00,32.4,27.8,30.43,NNW,338,0.0,0.0,83,0.00,CLR,,0.00,WeatherDisplay:10.37,2013-01-11 13:49:00,
2013-01-11 08:54:00,32.7,28.1,30.43,NNW,338,0.0,0.0,83,0.00,CLR,,0.00,WeatherDisplay:10.37,2013-01-11 13:54:00,
2013-01-11 08:59:00,33.1,28.2,30.43,NNW,338,0.0,0.0,82,0.00,CLR,,0.00,WeatherDisplay:10.37,2013-01-11 13:59:00,
2013-01-11 09:04:00,33.4,28.5,30.43,NNW,338,0.5,0.5,82,0.00,CLR,,0.00,WeatherDisplay:10.37,2013-01-11 14:04:00,
2013-01-11 09:09:00,33.8,28.9,30.43,NNW,338,0.0,0.0,82,0.00,CLR,,0.00,WeatherDisplay:10.37,2013-01-11 14:09:00,
2013-01-11 09:14:00,34.3,29.7,30.43,ENE,68,0.0,1.1,83,0.00,CLR,,0.00,WeatherDisplay:10.37,2013-01-11 14:14:00,
2013-01-11 09:19:00,34.9,30.2,30.42,ENE,68,0.5,1.1,83,0.00,CLR,,0.00,WeatherDisplay:10.37,2013-01-11 14:19:00,
2013-01-11 09:24:00,35.4,30.5,30.42,ENE,68,0.7,1.1,82,0.00,CLR,,0.00,WeatherDisplay:10.37,2013-01-11 14:24:00,
2013-01-11 09:29:00,36.0,31.0,30.42,ENE,68,0.5,1.1,82,0.00,CLR,,0.00,WeatherDisplay:10.37,2013-01-11 14:29:00,
2013-01-11 09:34:00,36.5,31.5,30.42,ENE,68,1.8,2.3,82,0.00,CLR,,0.00,WeatherDisplay:10.37,2013-01-11 14:34:00,
2013-01-11 09:39:00,37.4,32.4,30.42,NE,45,0.5,1.1,82,0.00,CLR,,0.00,WeatherDisplay:10.37,2013-01-11 14:39:00,
2013-01-11 09:44:00,38.3,33.3,30.42,ENE,68,1.4,1.4,82,0.00,CLR,,0.00,WeatherDisplay:10.37,2013-01-11 14:44:00,
2013-01-11 09:49:00,39.2,33.5,30.42,ENE,68,1.8,2.3,80,0.00,CLR,,0.00,WeatherDisplay:10.37,2013-01-11 14:49:00,
2013-01-11 09:54:00,39.7,33.8,30.42,NE,45,0.9,2.3,79,0.00,CLR,,0.00,WeatherDisplay:10.37,2013-01-11 14:54:00,
2013-01-11 09:59:00,40.3,33.6,30.42,NE,45,0.9,5.8,77,0.00,CLR,,0.00,WeatherDisplay:10.37,2013-01-11 14:59:00,
2013-01-11 10:04:00,40.6,33.7,30.42,ENE,68,1.6,4.6,76,0.00,CLR,,0.00,WeatherDisplay:10.37,2013-01-11 15:04:00,
2013-01-11 10:09:00,40.8,33.5,30.42,NE,45,0.9,2.3,75,0.00,CLR,,0.00,WeatherDisplay:10.37,2013-01-11 15:09:00,
2013-01-11 10:14:00,41.2,33.5,30.42,North,0,0.7,4.6,74,0.00,CLR,,0.00,WeatherDisplay:10.37,2013-01-11 15:14:00,
2013-01-11 10:19:00,41.5,33.9,30.42,ENE,68,0.5,2.3,74,0.00,CLR,,0.00,WeatherDisplay:10.37,2013-01-11 15:19:00,
2013-01-11 10:24:00,41.9,34.2,30.41,NE,45,3.6,3.6,74,0.00,CLR,,0.00,WeatherDisplay:10.37,2013-01-11 15:24:00,
2013-01-11 10:29:00,42.3,33.9,30.41,ESE,112,0.0,2.3,72,0.00,CLR,,0.00,WeatherDisplay:10.37,2013-01-11 15:29:00,
2013-01-11 10:34:00,42.4,33.7,30.41,ENE,68,0.0,2.3,71,0.00,CLR,,0.00,WeatherDisplay:10.37,2013-01-11 15:34:00,
2013-01-11 10:39:00,42.6,33.9,30.41,South,180,0.7,2.3,71,0.00,CLR,,0.00,WeatherDisplay:10.37,2013-01-11 15:39:00,
2013-01-11 10:44:00,42.8,33.7,30.41,NNE,22,0.5,3.5,70,0.00,CLR,,0.00,WeatherDisplay:10.37,2013-01-11 15:44:00,
2013-01-11 10:49:00,43.0,34.2,30.40,NNE,22,1.6,2.3,71,0.00,CLR,,0.00,WeatherDisplay:10.37,2013-01-11 15:49:00,
2013-01-11 10:54:00,43.5,34.4,30.39,ENE,68,0.9,2.3,70,0.00,CLR,,0.00,WeatherDisplay:10.37,2013-01-11 15:54:00,
2013-01-11 10:59:00,43.9,34.4,30.39,SSW,202,1.4,4.6,69,0.00,CLR,,0.00,WeatherDisplay:10.37,2013-01-11 15:59:00,
2013-01-11 11:04:00,44.1,34.5,30.38,South,180,0.0,2.3,69,0.00,CLR,,0.00,WeatherDisplay:10.37,2013-01-11 16:04:00,
2013-01-11 11:09:00,44.2,34.3,30.37,ENE,68,2.4,2.4,68,0.00,CLR,,0.00,WeatherDisplay:10.37,2013-01-11 16:09:00,
2013-01-11 11:14:00,44.4,34.1,30.37,East,90,3.3,3.3,67,0.00,CLR,,0.00,WeatherDisplay:10.37,2013-01-11 16:14:00,
2013-01-11 11:19:00,44.4,33.8,30.37,SE,135,2.0,2.3,66,0.00,CLR,,0.00,WeatherDisplay:10.37,2013-01-11 16:19:00,
2013-01-11 11:24:00,44.2,33.6,30.37,SSW,202,1.8,4.6,66,0.00,CLR,,0.00,WeatherDisplay:10.37,2013-01-11 16:24:00,
2013-01-11 11:29:00,44.4,33.4,30.37,SE,135,3.3,3.5,65,0.00,CLR,,0.00,WeatherDisplay:10.37,2013-01-11 16:29:00,
2013-01-11 11:34:00,44.4,33.8,30.36,SE,135,1.1,4.6,66,0.00,CLR,,0.00,WeatherDisplay:10.37,2013-01-11 16:34:00,
2013-01-11 11:39:00,44.6,33.9,30.36,South,180,2.9,4.6,66,0.00,CLR,,0.00,WeatherDisplay:10.37,2013-01-11 16:39:00,
2013-01-11 11:44:00,44.6,33.6,30.36,SE,135,1.8,5.8,65,0.00,CLR,,0.00,WeatherDisplay:10.37,2013-01-11 16:44:00,
2013-01-11 11:49:00,44.4,33.4,30.36,SE,135,4.9,4.9,65,0.00,CLR,,0.00,WeatherDisplay:10.37,2013-01-11 16:49:00,
2013-01-11 11:54:00,44.2,33.6,30.35,SSE,158,4.3,4.6,66,0.00,CLR,,0.00,WeatherDisplay:10.37,2013-01-11 16:54:00,
2013-01-11 11:59:00,44.1,33.8,30.35,ESE,112,1.8,3.5,67,0.00,CLR,,0.00,WeatherDisplay:10.37,2013-01-11 16:59:00,
2013-01-11 12:04:00,44.1,33.4,30.35,SE,135,0.5,2.3,66,0.00,CLR,,0.00,WeatherDisplay:10.37,2013-01-11 17:04:00,
2013-01-11 12:09:00,44.2,34.0,30.35,ESE,112,1.8,2.3,67,0.00,CLR,,0.00,WeatherDisplay:10.37,2013-01-11 17:09:00,
2013-01-11 12:14:00,44.2,34.0,30.35,SE,135,2.2,2.3,67,0.00,CLR,,0.00,WeatherDisplay:10.37,2013-01-11 17:14:00,
2013-01-11 12:19:00,44.2,34.0,30.34,SSW,202,1.4,2.3,67,0.00,CLR,,0.00,WeatherDisplay:10.37,2013-01-11 17:19:00,
2013-01-11 12:24:00,44.2,34.0,30.34,SE,135,4.0,4.0,67,0.00,CLR,,0.00,WeatherDisplay:10.37,2013-01-11 17:24:00,
2013-01-11 12:29:00,44.2,34.0,30.33,ESE,112,0.9,2.3,67,0.00,CLR,,0.00,WeatherDisplay:10.37,2013-01-11 17:29:00,
2013-01-11 12:34:00,44.2,34.0,30.33,South,180,0.9,1.1,67,0.00,CLR,,0.00,WeatherDisplay:10.37,2013-01-11 17:34:00,
2013-01-11 12:39:00,44.2,34.0,30.33,SSE,158,2.4,5.8,67,0.00,CLR,,0.00,WeatherDisplay:10.37,2013-01-11 17:39:00,
2013-01-11 12:44:00,44.2,34.0,30.33,SSW,202,3.3,4.6,67,0.00,CLR,,0.00,WeatherDisplay:10.37,2013-01-11 17:44:00,
2013-01-11 12:49:00,44.2,34.0,30.33,South,180,2.4,2.4,67,0.00,CLR,,0.00,WeatherDisplay:10.37,2013-01-11 17:49:00,
2013-01-11 12:54:00,44.2,34.0,30.34,SSE,158,2.0,2.3,67,0.00,CLR,,0.00,WeatherDisplay:10.37,2013-01-11 17:54:00,
2013-01-11 12:59:00,44.2,34.0,30.34,ESE,112,0.9,2.3,67,0.00,CLR,,0.00,WeatherDisplay:10.37,2013-01-11 17:59:00,
2013-01-11 13:04:00,44.1,33.8,30.34,SSW,202,0.5,2.3,67,0.00,CLR,,0.00,WeatherDisplay:10.37,2013-01-11 18:04:00,
2013-01-11 13:09:00,44.1,34.2,30.34,SSW,202,2.2,2.3,68,0.00,CLR,,0.00,WeatherDisplay:10.37,2013-01-11 18:09:00,
2013-01-11 13:14:00,44.1,33.8,30.34,SSE,158,1.6,2.3,67,0.00,CLR,,0.00,WeatherDisplay:10.37,2013-01-11 18:14:00,
2013-01-11 13:19:00,44.1,33.8,30.33,East,90,3.3,3.5,67,0.00,CLR,,0.00,WeatherDisplay:10.37,2013-01-11 18:19:00,
2013-01-11 13:24:00,43.9,33.6,30.32,South,180,1.6,4.6,67,0.00,CLR,,0.00,WeatherDisplay:10.37,2013-01-11 18:24:00,
2013-01-11 13:29:00,43.7,33.8,30.33,SE,135,0.5,2.3,68,0.00,CLR,,0.00,WeatherDisplay:10.37,2013-01-11 18:29:00,
2013-01-11 13:34:00,43.7,33.8,30.33,NE,45,0.5,1.1,68,0.00,CLR,,0.00,WeatherDisplay:10.37,2013-01-11 18:34:00,
2013-01-11 13:39:00,43.7,33.5,30.33,ENE,68,2.9,3.5,67,0.00,CLR,,0.00,WeatherDisplay:10.37,2013-01-11 18:39:00,
2013-01-11 13:44:00,43.5,33.3,30.33,SSE,158,1.1,2.3,67,0.00,CLR,,0.00,WeatherDisplay:10.37,2013-01-11 18:44:00,
2013-01-11 13:49:00,43.5,33.7,30.32,SE,135,0.5,2.3,68,0.00,CLR,,0.00,WeatherDisplay:10.37,2013-01-11 18:49:00,
2013-01-11 13:54:00,43.2,33.3,30.32,SSE,158,1.1,3.5,68,0.00,CLR,,0.00,WeatherDisplay:10.37,2013-01-11 18:54:00,
2013-01-11 13:59:00,43.0,33.1,30.31,East,90,1.4,2.3,68,0.00,CLR,,0.00,WeatherDisplay:10.37,2013-01-11 18:59:00,
2013-01-11 14:04:00,43.0,33.1,30.31,East,90,1.1,2.3,68,0.00,CLR,,0.00,WeatherDisplay:10.37,2013-01-11 19:04:00,
2013-01-11 14:09:00,43.0,33.1,30.31,SE,135,1.1,2.3,68,0.00,CLR,,0.00,WeatherDisplay:10.37,2013-01-11 19:09:00,
2013-01-11 14:14:00,43.2,33.7,30.31,South,180,0.2,1.1,69,0.00,CLR,,0.00,WeatherDisplay:10.37,2013-01-11 19:14:00,
2013-01-11 14:19:00,43.2,33.7,30.30,South,180,0.5,1.1,69,0.00,CLR,,0.00,WeatherDisplay:10.37,2013-01-11 19:19:00,
2013-01-11 14:24:00,43.2,33.7,30.30,SE,135,1.4,1.4,69,0.00,CLR,,0.00,WeatherDisplay:10.37,2013-01-11 19:24:00,
2013-01-11 14:29:00,43.0,33.5,30.30,ESE,112,1.1,2.3,69,0.00,CLR,,0.00,WeatherDisplay:10.37,2013-01-11 19:29:00,
2013-01-11 14:34:00,42.8,33.3,30.30,NE,45,0.9,1.1,69,0.00,CLR,,0.00,WeatherDisplay:10.37,2013-01-11 19:34:00,
2013-01-11 14:39:00,42.6,33.2,30.30,ENE,68,0.5,2.3,69,0.00,CLR,,0.00,WeatherDisplay:10.37,2013-01-11 19:39:00,
2013-01-11 14:44:00,42.4,33.3,30.30,SE,135,1.8,1.8,70,0.00,CLR,,0.00,WeatherDisplay:10.37,2013-01-11 19:44:00,
2013-01-11 14:49:00,42.4,33.3,30.30,South,180,0.2,0.2,70,0.00,CLR,,0.00,WeatherDisplay:10.37,2013-01-11 19:49:00,
2013-01-11 14:54:00,42.4,33.3,30.31,SSW,202,0.5,1.1,70,0.00,CLR,,0.00,WeatherDisplay:10.37,2013-01-11 19:54:00,
2013-01-11 14:59:00,42.4,33.3,30.31,SSW,202,0.0,0.0,70,0.00,CLR,,0.00,WeatherDisplay:10.37,2013-01-11 19:59:00,
2013-01-11 15:04:00,42.3,33.2,30.31,SW,225,0.2,1.1,70,0.00,CLR,,0.00,WeatherDisplay:10.37,2013-01-11 20:04:00,
2013-01-11 15:09:00,42.1,33.0,30.29,East,90,1.1,1.1,70,0.00,CLR,,0.00,WeatherDisplay:10.37,2013-01-11 20:09:00,
2013-01-11 15:14:00,41.9,32.8,30.31,SSW,202,0.5,1.1,70,0.00,CLR,,0.00,WeatherDisplay:10.37,2013-01-11 20:14:00,
2013-01-11 15:19:00,41.7,32.7,30.31,SW,225,0.5,1.1,70,0.00,CLR,,0.00,WeatherDisplay:10.37,2013-01-11 20:19:00,
2013-01-11 15:24:00,41.7,32.7,30.31,SSW,202,0.2,2.3,70,0.00,CLR,,0.00,WeatherDisplay:10.37,2013-01-11 20:24:00,
2013-01-11 15:29:00,41.7,32.7,30.31,SW,225,0.0,0.0,70,0.00,CLR,,0.00,WeatherDisplay:10.37,2013-01-11 20:29:00,
2013-01-11 15:34:00,41.5,32.5,30.31,SW,225,0.5,1.1,70,0.00,CLR,,0.00,WeatherDisplay:10.37,2013-01-11 20:34:00,
2013-01-11 15:39:00,41.4,32.3,30.30,South,180,0.0,0.0,70,0.00,CLR,,0.00,WeatherDisplay:10.37,2013-01-11 20:39:00,
2013-01-11 15:44:00,41.4,32.3,30.31,SW,225,0.0,0.0,70,0.00,CLR,,0.00,WeatherDisplay:10.37,2013-01-11 20:44:00,
2013-01-11 15:49:00,41.2,32.5,30.30,SW,225,0.5,0.5,71,0.00,CLR,,0.00,WeatherDisplay:10.37,2013-01-11 20:49:00,
2013-01-11 15:54:00,41.0,32.3,30.29,ENE,68,1.8,1.8,71,0.00,CLR,,0.00,WeatherDisplay:10.37,2013-01-11 20:54:00,
2013-01-11 15:59:00,40.8,32.1,30.29,ENE,68,0.0,1.1,71,0.00,CLR,,0.00,WeatherDisplay:10.37,2013-01-11 20:59:00,
2013-01-11 16:04:00,40.6,32.0,30.30,SW,225,0.7,1.1,71,0.00,CLR,,0.00,WeatherDisplay:10.37,2013-01-11 21:04:00,
2013-01-11 16:09:00,40.6,32.0,30.29,SW,225,0.0,0.0,71,0.00,CLR,,0.00,WeatherDisplay:10.37,2013-01-11 21:09:00,
2013-01-11 16:14:00,40.5,31.8,30.29,SSE,158,0.2,0.2,71,0.00,CLR,,0.00,WeatherDisplay:10.37,2013-01-11 21:14:00,
2013-01-11 16:19:00,40.3,32.0,30.28,ESE,112,0.2,1.1,72,0.00,CLR,,0.00,WeatherDisplay:10.37,2013-01-11 21:19:00,
2013-01-11 16:24:00,40.1,31.8,30.29,ESE,112,0.0,0.0,72,0.00,CLR,,0.00,WeatherDisplay:10.37,2013-01-11 21:24:00,
2013-01-11 16:29:00,40.1,31.8,30.28,ESE,112,0.5,0.5,72,0.00,CLR,,0.00,WeatherDisplay:10.37,2013-01-11 21:29:00,
2013-01-11 16:34:00,39.9,31.6,30.28,ESE,112,0.2,1.1,72,0.00,CLR,,0.00,WeatherDisplay:10.37,2013-01-11 21:34:00,
2013-01-11 16:39:00,39.7,31.8,30.28,SE,135,0.5,0.5,73,0.00,CLR,,0.00,WeatherDisplay:10.37,2013-01-11 21:39:00,
2013-01-11 16:44:00,39.6,31.6,30.27,ESE,112,0.5,1.1,73,0.00,CLR,,0.00,WeatherDisplay:10.37,2013-01-11 21:44:00,
2013-01-11 16:49:00,39.6,31.6,30.27,SE,135,0.5,1.1,73,0.00,CLR,,0.00,WeatherDisplay:10.37,2013-01-11 21:49:00,
2013-01-11 16:54:00,39.4,31.4,30.27,SSE,158,0.2,1.1,73,0.00,CLR,,0.00,WeatherDisplay:10.37,2013-01-11 21:54:00,
2013-01-11 16:59:00,39.2,31.3,30.27,SE,135,1.1,1.1,73,0.00,CLR,,0.00,WeatherDisplay:10.37,2013-01-11 21:59:00,
2013-01-11 17:04:00,39.2,31.3,30.27,ESE,112,0.5,1.1,73,0.00,CLR,,0.00,WeatherDisplay:10.37,2013-01-11 22:04:00,
2013-01-11 17:09:00,39.2,31.3,30.27,SE,135,0.5,1.1,73,0.00,CLR,,0.00,WeatherDisplay:10.37,2013-01-11 22:09:00,
2013-01-11 17:14:00,39.2,31.3,30.26,NE,45,0.5,0.5,73,0.00,CLR,,0.00,WeatherDisplay:10.37,2013-01-11 22:14:00,
2013-01-11 17:19:00,39.0,31.4,30.26,ESE,112,1.8,1.8,74,0.00,CLR,,0.00,WeatherDisplay:10.37,2013-01-11 22:19:00,
2013-01-11 17:24:00,39.0,31.4,30.26,SE,135,0.0,2.3,74,0.00,CLR,,0.00,WeatherDisplay:10.37,2013-01-11 22:24:00,
2013-01-11 17:29:00,38.8,31.3,30.26,East,90,0.5,1.1,74,0.00,CLR,,0.00,WeatherDisplay:10.37,2013-01-11 22:29:00,
2013-01-11 17:34:00,38.8,31.3,30.26,ESE,112,0.5,1.1,74,0.00,CLR,,0.00,WeatherDisplay:10.37,2013-01-11 22:34:00,
2013-01-11 17:39:00,38.8,31.3,30.26,East,90,0.2,2.3,74,0.00,CLR,,0.00,WeatherDisplay:10.37,2013-01-11 22:39:00,
2013-01-11 17:44:00,38.8,31.6,30.26,East,90,0.0,0.0,75,0.00,CLR,,0.00,WeatherDisplay:10.37,2013-01-11 22:44:00,
2013-01-11 17:49:00,38.8,31.6,30.26,North,0,0.0,0.0,75,0.00,CLR,,0.00,WeatherDisplay:10.37,2013-01-11 22:49:00,
2013-01-11 17:54:00,38.8,31.6,30.26,North,0,0.0,0.0,75,0.00,CLR,,0.00,WeatherDisplay:10.37,2013-01-11 22:54:00,
2013-01-11 17:59:00,38.8,31.6,30.26,East,90,0.0,0.0,75,0.00,CLR,,0.00,WeatherDisplay:10.37,2013-01-11 22:59:00,
2013-01-11 18:04:00,38.7,31.4,30.26,ESE,112,0.0,0.0,75,0.00,CLR,,0.00,WeatherDisplay:10.37,2013-01-11 23:04:00,
2013-01-11 18:09:00,38.7,31.4,30.26,ESE,112,0.2,0.2,75,0.00,CLR,,0.00,WeatherDisplay:10.37,2013-01-11 23:09:00,
2013-01-11 18:14:00,38.7,31.4,30.26,South,180,0.5,0.5,75,0.00,CLR,,0.00,WeatherDisplay:10.37,2013-01-11 23:14:00,
2013-01-11 18:19:00,38.7,31.4,30.26,SSE,158,0.5,1.1,75,0.00,CLR,,0.00,WeatherDisplay:10.37,2013-01-11 23:19:00,
2013-01-11 18:24:00,38.7,31.4,30.26,South,180,0.5,1.1,75,0.00,CLR,,0.00,WeatherDisplay:10.37,2013-01-11 23:24:00,
2013-01-11 18:29:00,38.7,31.7,30.26,SSE,158,0.5,1.1,76,0.00,CLR,,0.00,WeatherDisplay:10.37,2013-01-11 23:29:00,
2013-01-11 18:34:00,38.7,31.7,30.26,SE,135,0.2,1.1,76,0.00,CLR,,0.00,WeatherDisplay:10.37,2013-01-11 23:34:00,
2013-01-11 18:39:00,38.7,31.7,30.26,SE,135,0.2,1.1,76,0.00,CLR,,0.00,WeatherDisplay:10.37,2013-01-11 23:39:00,
2013-01-11 18:44:00,38.7,31.7,30.26,SSE,158,0.5,1.1,76,0.00,CLR,,0.00,WeatherDisplay:10.37,2013-01-11 23:44:00,
2013-01-11 18:49:00,38.5,31.9,30.26,SSE,158,0.7,1.1,77,0.00,CLR,,0.00,WeatherDisplay:10.37,2013-01-11 23:49:00,
2013-01-11 18:54:00,38.7,32.1,30.25,SSE,158,1.4,1.4,77,0.00,CLR,,0.00,WeatherDisplay:10.37,2013-01-11 23:54:00,
2013-01-11 18:59:00,38.5,31.9,30.25,SE,135,1.8,1.8,77,0.00,CLR,,0.00,WeatherDisplay:10.37,2013-01-11 23:59:00,
2013-01-11 19:04:00,38.5,31.9,30.25,SE,135,1.4,1.4,77,0.00,CLR,,0.00,WeatherDisplay:10.37,2013-01-12 00:04:00,
2013-01-11 19:09:00,38.5,31.9,30.25,South,180,0.5,1.1,77,0.00,CLR,,0.00,WeatherDisplay:10.37,2013-01-12 00:09:00,
2013-01-11 19:14:00,38.5,31.9,30.25,SSE,158,0.5,1.1,77,0.00,CLR,,0.00,WeatherDisplay:10.37,2013-01-12 00:14:00,
2013-01-11 19:19:00,38.5,32.2,30.25,SSE,158,1.1,1.1,78,0.00,CLR,,0.00,WeatherDisplay:10.37,2013-01-12 00:19:00,
2013-01-11 19:24:00,38.5,32.2,30.25,South,180,0.0,1.1,78,0.00,CLR,,0.00,WeatherDisplay:10.37,2013-01-12 00:24:00,
2013-01-11 19:29:00,38.5,32.2,30.25,South,180,0.5,1.1,78,0.00,CLR,,0.00,WeatherDisplay:10.37,2013-01-12 00:29:00,
2013-01-11 19:34:00,38.5,32.2,30.24,SSE,158,2.4,2.4,78,0.00,CLR,,0.00,WeatherDisplay:10.37,2013-01-12 00:34:00,
2013-01-11 19:39:00,38.5,32.2,30.24,SSE,158,1.4,1.4,78,0.00,CLR,,0.00,WeatherDisplay:10.37,2013-01-12 00:39:00,
2013-01-11 19:44:00,38.5,32.5,30.24,SSE,158,1.1,2.3,79,0.00,CLR,,0.00,WeatherDisplay:10.37,2013-01-12 00:44:00,
2013-01-11 19:49:00,38.5,32.5,30.23,SSE,158,1.4,2.3,79,0.00,CLR,,0.00,WeatherDisplay:10.37,2013-01-12 00:49:00,
2013-01-11 19:54:00,38.5,32.5,30.24,SSE,158,1.6,2.3,79,0.00,CLR,,0.00,WeatherDisplay:10.37,2013-01-12 00:54:00,
2013-01-11 19:59:00,38.5,32.5,30.24,South,180,2.6,2.6,79,0.00,CLR,,0.00,WeatherDisplay:10.37,2013-01-12 00:59:00,
2013-01-11 20:04:00,38.5,32.5,30.23,South,180,1.8,2.3,79,0.00,CLR,,0.00,WeatherDisplay:10.37,2013-01-12 01:04:00,
2013-01-11 20:09:00,38.7,32.7,30.23,SSW,202,0.7,2.3,79,0.00,CLR,,0.00,WeatherDisplay:10.37,2013-01-12 01:09:00,
2013-01-11 20:14:00,38.7,32.7,30.22,SSE,158,2.2,2.3,79,0.00,CLR,,0.00,WeatherDisplay:10.37,2013-01-12 01:14:00,
2013-01-11 20:19:00,38.5,32.8,30.22,South,180,2.4,3.5,80,0.00,CLR,,0.00,WeatherDisplay:10.37,2013-01-12 01:19:00,
2013-01-11 20:24:00,38.7,33.0,30.22,SE,135,1.4,4.6,80,0.00,CLR,,0.00,WeatherDisplay:10.37,2013-01-12 01:24:00,
2013-01-11 20:29:00,38.7,33.0,30.22,SSW,202,0.7,2.3,80,0.00,CLR,,0.00,WeatherDisplay:10.37,2013-01-12 01:29:00,
2013-01-11 20:34:00,38.8,33.2,30.22,SSE,158,1.8,2.3,80,0.00,CLR,,0.00,WeatherDisplay:10.37,2013-01-12 01:34:00,
2013-01-11 20:39:00,38.8,33.2,30.22,SSW,202,2.4,2.4,80,0.00,CLR,,0.00,WeatherDisplay:10.37,2013-01-12 01:39:00,
2013-01-11 20:44:00,38.8,33.2,30.22,SSE,158,3.1,3.5,80,0.00,CLR,,0.00,WeatherDisplay:10.37,2013-01-12 01:44:00,
2013-01-11 20:49:00,38.8,33.2,30.22,SSE,158,2.4,2.4,80,0.00,CLR,,0.00,WeatherDisplay:10.37,2013-01-12 01:49:00,
2013-01-11 20:54:00,38.8,33.2,30.22,South,180,1.6,3.5,80,0.00,CLR,,0.00,WeatherDisplay:10.37,2013-01-12 01:54:00,
2013-01-11 20:59:00,38.8,33.5,30.22,SSE,158,1.4,2.3,81,0.00,CLR,,0.00,WeatherDisplay:10.37,2013-01-12 01:59:00,
2013-01-11 21:04:00,38.8,33.2,30.22,SE,135,0.9,3.5,80,0.00,CLR,,0.00,WeatherDisplay:10.37,2013-01-12 02:04:00,
2013-01-11 21:09:00,38.8,33.2,30.22,SE,135,0.7,2.3,80,0.00,CLR,,0.00,WeatherDisplay:10.37,2013-01-12 02:09:00,
2013-01-11 21:14:00,38.8,33.8,30.21,ESE,112,1.8,2.3,82,0.00,CLR,,0.00,WeatherDisplay:10.37,2013-01-12 02:14:00,
2013-01-11 21:19:00,38.8,33.8,30.20,ENE,68,1.1,2.3,82,0.00,CLR,,0.00,WeatherDisplay:10.37,2013-01-12 02:19:00,
2013-01-11 21:24:00,38.8,33.8,30.20,SE,135,0.7,3.5,82,0.00,CLR,,0.00,WeatherDisplay:10.37,2013-01-12 02:24:00,
2013-01-11 21:29:00,38.8,33.8,30.21,South,180,1.4,2.3,82,0.00,CLR,,0.00,WeatherDisplay:10.37,2013-01-12 02:29:00,
2013-01-11 21:34:00,38.8,33.8,30.21,SE,135,3.3,3.3,82,0.01,RA,,0.01,WeatherDisplay:10.37,2013-01-12 02:34:00,
2013-01-11 21:39:00,38.8,33.8,30.21,SSE,158,2.4,2.4,82,0.01,RA,,0.01,WeatherDisplay:10.37,2013-01-12 02:39:00,
2013-01-11 21:44:00,38.8,33.8,30.21,SSE,158,2.4,2.4,82,0.01,,,0.01,WeatherDisplay:10.37,2013-01-12 02:44:00,
2013-01-11 21:49:00,38.7,33.6,30.21,South,180,1.1,1.1,82,0.01,CLR,,0.01,WeatherDisplay:10.37,2013-01-12 02:49:00,
2013-01-11 21:54:00,38.8,33.8,30.21,SSE,158,1.8,1.8,82,0.01,CLR,,0.01,WeatherDisplay:10.37,2013-01-12 02:54:00,
2013-01-11 21:59:00,38.7,34.2,30.21,SSE,158,0.2,1.1,84,0.02,RA,,0.02,WeatherDisplay:10.37,2013-01-12 02:59:00,
2013-01-11 22:04:00,38.8,34.7,30.21,SE,135,1.8,2.3,85,0.02,RA,,0.02,WeatherDisplay:10.37,2013-01-12 03:04:00,
2013-01-11 22:09:00,38.7,34.2,30.20,ESE,112,2.4,2.4,84,0.02,CLR,,0.02,WeatherDisplay:10.37,2013-01-12 03:09:00,
2013-01-11 22:14:00,38.7,34.2,30.20,SSW,202,0.5,0.0,84,0.03,RA,,0.03,WeatherDisplay:10.37,2013-01-12 03:14:00,
2013-01-11 22:19:00,38.7,34.5,30.20,SSE,158,1.4,2.3,85,0.03,RA,,0.03,WeatherDisplay:10.37,2013-01-12 03:19:00,
2013-01-11 22:24:00,38.8,34.4,30.20,SE,135,3.3,3.3,84,0.03,,,0.03,WeatherDisplay:10.37,2013-01-12 03:24:00,
2013-01-11 22:29:00,38.8,34.7,30.20,South,180,2.6,2.6,85,0.03,CLR,,0.03,WeatherDisplay:10.37,2013-01-12 03:29:00,
2013-01-11 22:34:00,38.8,35.0,30.19,SE,135,2.4,0.0,86,0.02,CLR,,0.04,WeatherDisplay:10.37,2013-01-12 03:34:00,
2013-01-11 22:39:00,38.8,34.7,30.20,NNE,22,0.9,3.5,85,0.03,RA,,0.04,WeatherDisplay:10.37,2013-01-12 03:39:00,
2013-01-11 22:44:00,38.7,34.5,30.20,NE,45,1.1,3.5,85,0.04,RA,,0.05,WeatherDisplay:10.37,2013-01-12 03:44:00,
2013-01-11 22:49:00,38.8,35.0,30.19,SSE,158,1.1,3.5,86,0.04,RA,,0.05,WeatherDisplay:10.37,2013-01-12 03:49:00,
2013-01-11 22:54:00,38.8,35.0,30.19,SE,135,3.3,3.5,86,0.03,,,0.05,WeatherDisplay:10.37,2013-01-12 03:54:00,
2013-01-11 22:59:00,38.8,35.3,30.20,SSE,158,0.5,2.3,87,0.04,RA,,0.06,WeatherDisplay:10.37,2013-01-12 03:59:00,
2013-01-11 23:04:00,38.8,35.3,30.20,SSE,158,1.1,3.5,87,0.04,RA,,0.06,WeatherDisplay:10.37,2013-01-12 04:04:00,
2013-01-11 23:09:00,38.8,35.0,30.20,SSE,158,0.5,2.3,86,0.05,RA,,0.07,WeatherDisplay:10.37,2013-01-12 04:09:00,
2013-01-11 23:14:00,38.8,35.3,30.19,ESE,112,2.4,2.4,87,0.04,RA,,0.07,WeatherDisplay:10.37,2013-01-12 04:14:00,
2013-01-11 23:19:00,38.8,35.0,30.18,SSE,158,0.5,1.1,86,0.04,,,0.07,WeatherDisplay:10.37,2013-01-12 04:19:00,
2013-01-11 23:24:00,38.8,35.0,30.18,SSE,158,2.2,3.5,86,0.04,CLR,,0.07,WeatherDisplay:10.37,2013-01-12 04:24:00,
2013-01-11 23:29:00,38.7,35.1,30.18,SSE,158,2.0,2.0,87,0.04,CLR,,0.07,WeatherDisplay:10.37,2013-01-12 04:29:00,
2013-01-11 23:34:00,38.7,34.8,30.18,SE,135,4.0,4.0,86,0.05,RA,,0.08,WeatherDisplay:10.37,2013-01-12 04:34:00,
2013-01-11 23:39:00,38.7,35.1,30.17,SSW,202,1.8,3.5,87,0.04,RA,,0.08,WeatherDisplay:10.37,2013-01-12 04:39:00,
2013-01-11 23:44:00,38.7,35.1,30.17,SSE,158,4.0,4.6,87,0.03,CLR,,0.08,WeatherDisplay:10.37,2013-01-12 04:44:00,
2013-01-11 23:49:00,38.7,35.4,30.16,SE,135,3.8,3.8,88,0.03,CLR,,0.08,WeatherDisplay:10.37,2013-01-12 04:49:00,
2013-01-11 23:54:00,38.7,35.7,30.16,South,180,3.1,9.2,89,0.04,RA,,0.09,WeatherDisplay:10.37,2013-01-12 04:54:00,
2013-01-11 23:59:00,38.5,35.2,30.16,ESE,112,1.6,5.8,88,0.03,RA,,0.09,WeatherDisplay:10.37,2013-01-12 04:59:00,